sensor_id;sensor_type;location;lat;lon;timestamp;P1;durP1;ratioP1;P2;durP2;ratioP2
48002;SDS011;33768;48.578;11.574;2023-03-16T06:56:13;8.43;;;6.60;;
48002;SDS011;33768;48.578;11.574;2023-03-16T06:59:21;8.80;;;6.33;;
48002;SDS011;33768;48.578;11.574;2023-03-16T07:02:26;9.30;;;6.47;;
48002;SDS011;33768;48.578;11.574;2023-03-16T07:05:30;9.33;;;6.70;;
48002;SDS011;33768;48.578;11.574;2023-03-16T07:08:35;11.47;;;7.03;;
48002;SDS011;33768;48.578;11.574;2023-03-16T07:11:40;7.43;;;5.90;;
48002;SDS011;33768;48.578;11.574;2023-03-16T07:14:44;6.67;;;5.50;;
48002;SDS011;33768;48.578;11.574;2023-03-16T07:17:51;6.77;;;5.47;;
48002;SDS011;33768;48.578;11.574;2023-03-16T07:20:56;7.43;;;5.63;;
48002;SDS011;33768;48.578;11.574;2023-03-16T07:24:03;5.87;;;5.10;;
48002;SDS011;33768;48.578;11.574;2023-03-16T07:27:13;6.70;;;5.03;;
48002;SDS011;33768;48.578;11.574;2023-03-16T07:30:20;7.27;;;5.80;;
48002;SDS011;33768;48.578;11.574;2023-03-16T07:33:26;5.53;;;4.67;;
48002;SDS011;33768;48.578;11.574;2023-03-16T07:36:30;6.73;;;5.03;;
48002;SDS011;33768;48.578;11.574;2023-03-16T07:39:38;6.77;;;5.17;;
48002;SDS011;33768;48.578;11.574;2023-03-16T07:42:51;7.37;;;5.87;;
48002;SDS011;33768;48.578;11.574;2023-03-16T07:46:03;6.23;;;5.57;;
48002;SDS011;33768;48.578;11.574;2023-03-16T07:49:09;5.57;;;4.83;;
48002;SDS011;33768;48.578;11.574;2023-03-16T07:52:15;5.60;;;5.00;;
48002;SDS011;33768;48.578;11.574;2023-03-16T07:55:20;9.70;;;5.50;;
48002;SDS011;33768;48.578;11.574;2023-03-16T07:58:25;7.13;;;4.97;;
48002;SDS011;33768;48.578;11.574;2023-03-16T08:01:30;8.00;;;4.80;;
48002;SDS011;33768;48.578;11.574;2023-03-16T08:04:34;5.87;;;4.53;;
48002;SDS011;33768;48.578;11.574;2023-03-16T08:07:39;9.93;;;5.30;;
48002;SDS011;33768;48.578;11.574;2023-03-16T08:10:51;9.33;;;5.20;;
48002;SDS011;33768;48.578;11.574;2023-03-16T08:13:58;7.50;;;5.10;;
48002;SDS011;33768;48.578;11.574;2023-03-16T08:17:13;6.10;;;4.83;;
48002;SDS011;33768;48.578;11.574;2023-03-16T08:20:17;7.00;;;5.03;;
48002;SDS011;33768;48.578;11.574;2023-03-16T08:23:23;5.40;;;4.87;;
48002;SDS011;33768;48.578;11.574;2023-03-16T08:26:29;5.83;;;4.90;;
48002;SDS011;33768;48.578;11.574;2023-03-16T08:29:36;6.57;;;4.93;;
48002;SDS011;33768;48.578;11.574;2023-03-16T08:32:42;6.27;;;5.33;;
48002;SDS011;33768;48.578;11.574;2023-03-16T08:35:47;6.83;;;4.70;;
48002;SDS011;33768;48.578;11.574;2023-03-16T08:38:51;6.40;;;5.07;;
48002;SDS011;33768;48.578;11.574;2023-03-16T08:41:57;6.40;;;4.83;;
48002;SDS011;33768;48.578;11.574;2023-03-16T08:45:08;6.30;;;4.70;;
48002;SDS011;33768;48.578;11.574;2023-03-16T08:48:15;6.50;;;4.93;;
48002;SDS011;33768;48.578;11.574;2023-03-16T08:51:21;6.70;;;4.87;;
48002;SDS011;33768;48.578;11.574;2023-03-16T08:54:25;5.97;;;5.07;;
48002;SDS011;33768;48.578;11.574;2023-03-16T08:57:30;7.13;;;5.47;;
48002;SDS011;33768;48.578;11.574;2023-03-16T09:00:39;7.40;;;5.67;;
48002;SDS011;33768;48.578;11.574;2023-03-16T09:03:43;6.87;;;5.87;;
48002;SDS011;33768;48.578;11.574;2023-03-16T09:06:51;7.30;;;5.77;;
48002;SDS011;33768;48.578;11.574;2023-03-16T09:09:56;6.10;;;5.50;;
48002;SDS011;33768;48.578;11.574;2023-03-16T09:13:00;7.77;;;5.37;;
48002;SDS011;33768;48.578;11.574;2023-03-16T09:16:05;9.23;;;5.53;;
48002;SDS011;33768;48.578;11.574;2023-03-16T09:19:11;6.03;;;5.07;;
48002;SDS011;33768;48.578;11.574;2023-03-16T09:22:17;6.80;;;5.47;;
48002;SDS011;33768;48.578;11.574;2023-03-16T09:25:22;7.97;;;4.70;;
48002;SDS011;33768;48.578;11.574;2023-03-16T09:28:28;6.10;;;4.83;;
48002;SDS011;33768;48.578;11.574;2023-03-16T09:31:34;6.07;;;5.13;;
48002;SDS011;33768;48.578;11.574;2023-03-16T09:34:39;5.93;;;4.57;;
48002;SDS011;33768;48.578;11.574;2023-03-16T09:37:43;6.50;;;5.40;;
48002;SDS011;33768;48.578;11.574;2023-03-16T09:40:48;5.60;;;4.63;;
48002;SDS011;33768;48.578;11.574;2023-03-16T09:47:34;10.33;;;4.70;;
48002;SDS011;33768;48.578;11.574;2023-03-16T09:50:40;6.83;;;5.53;;
48002;SDS011;33768;48.578;11.574;2023-03-16T09:53:46;6.47;;;4.77;;
48002;SDS011;33768;48.578;11.574;2023-03-16T09:56:55;6.47;;;5.13;;
48002;SDS011;33768;48.578;11.574;2023-03-16T10:00:16;7.30;;;5.03;;
48002;SDS011;33768;48.578;11.574;2023-03-16T10:07:01;7.80;;;5.20;;
48002;SDS011;33768;48.578;11.574;2023-03-16T10:10:24;5.30;;;4.47;;
48002;SDS011;33768;48.578;11.574;2023-03-16T10:17:20;7.53;;;5.17;;
48002;SDS011;33768;48.578;11.574;2023-03-16T10:20:31;6.83;;;5.10;;
48002;SDS011;33768;48.578;11.574;2023-03-16T10:23:37;5.47;;;4.97;;
48002;SDS011;33768;48.578;11.574;2023-03-16T10:26:42;7.67;;;5.60;;
48002;SDS011;33768;48.578;11.574;2023-03-16T10:29:53;6.93;;;6.03;;
48002;SDS011;33768;48.578;11.574;2023-03-16T10:33:01;7.07;;;6.00;;
48002;SDS011;33768;48.578;11.574;2023-03-16T10:36:17;8.87;;;6.57;;
48002;SDS011;33768;48.578;11.574;2023-03-16T10:39:34;8.47;;;6.57;;
48002;SDS011;33768;48.578;11.574;2023-03-16T10:42:39;7.50;;;6.30;;
48002;SDS011;33768;48.578;11.574;2023-03-16T10:45:44;12.87;;;6.00;;
48002;SDS011;33768;48.578;11.574;2023-03-16T10:48:53;6.73;;;5.90;;
48002;SDS011;33768;48.578;11.574;2023-03-16T10:52:12;6.77;;;5.93;;
48002;SDS011;33768;48.578;11.574;2023-03-16T10:55:29;7.17;;;5.50;;
48002;SDS011;33768;48.578;11.574;2023-03-16T10:58:39;7.77;;;6.17;;
48002;SDS011;33768;48.578;11.574;2023-03-16T11:01:46;8.50;;;6.40;;
48002;SDS011;33768;48.578;11.574;2023-03-16T11:04:53;9.07;;;6.67;;
48002;SDS011;33768;48.578;11.574;2023-03-16T11:07:59;10.60;;;7.00;;
48002;SDS011;33768;48.578;11.574;2023-03-16T11:11:07;7.77;;;5.80;;
48002;SDS011;33768;48.578;11.574;2023-03-16T11:14:18;8.33;;;5.93;;
48002;SDS011;33768;48.578;11.574;2023-03-16T11:17:40;8.97;;;6.50;;
48002;SDS011;33768;48.578;11.574;2023-03-16T11:20:50;9.13;;;6.33;;
48002;SDS011;33768;48.578;11.574;2023-03-16T11:24:04;8.00;;;6.27;;
48002;SDS011;33768;48.578;11.574;2023-03-16T11:27:23;8.20;;;6.53;;
48002;SDS011;33768;48.578;11.574;2023-03-16T11:30:35;7.50;;;6.30;;
48002;SDS011;33768;48.578;11.574;2023-03-16T11:33:44;7.27;;;5.63;;
48002;SDS011;33768;48.578;11.574;2023-03-16T11:36:51;7.23;;;5.90;;
48002;SDS011;33768;48.578;11.574;2023-03-16T11:40:07;7.57;;;5.80;;
48002;SDS011;33768;48.578;11.574;2023-03-16T11:43:31;9.23;;;6.83;;
48002;SDS011;33768;48.578;11.574;2023-03-16T11:46:50;8.73;;;7.20;;
48002;SDS011;33768;48.578;11.574;2023-03-16T11:50:04;10.83;;;7.50;;
48002;SDS011;33768;48.578;11.574;2023-03-16T11:56:48;8.37;;;5.83;;
48002;SDS011;33768;48.578;11.574;2023-03-16T12:00:16;8.10;;;5.97;;
48002;SDS011;33768;48.578;11.574;2023-03-16T12:03:38;8.50;;;6.20;;
48002;SDS011;33768;48.578;11.574;2023-03-16T12:07:28;7.17;;;5.33;;
48002;SDS011;33768;48.578;11.574;2023-03-16T12:14:17;7.83;;;5.63;;
48002;SDS011;33768;48.578;11.574;2023-03-16T12:17:28;6.33;;;5.10;;
48002;SDS011;33768;48.578;11.574;2023-03-16T12:23:56;6.10;;;4.90;;
48002;SDS011;33768;48.578;11.574;2023-03-16T12:27:04;6.87;;;4.93;;
48002;SDS011;33768;48.578;11.574;2023-03-16T12:40:24;6.53;;;4.07;;
48002;SDS011;33768;48.578;11.574;2023-03-16T12:43:40;6.33;;;3.87;;
48002;SDS011;33768;48.578;11.574;2023-03-16T12:46:59;4.33;;;3.93;;
48002;SDS011;33768;48.578;11.574;2023-03-16T12:50:25;4.67;;;3.50;;
48002;SDS011;33768;48.578;11.574;2023-03-16T12:53:51;4.77;;;3.70;;
48002;SDS011;33768;48.578;11.574;2023-03-16T12:57:04;8.43;;;4.17;;
48002;SDS011;33768;48.578;11.574;2023-03-16T13:00:11;4.97;;;4.40;;
48002;SDS011;33768;48.578;11.574;2023-03-16T13:03:19;6.10;;;4.20;;
48002;SDS011;33768;48.578;11.574;2023-03-16T13:06:28;7.23;;;4.13;;
48002;SDS011;33768;48.578;11.574;2023-03-16T13:09:39;4.10;;;3.57;;
48002;SDS011;33768;48.578;11.574;2023-03-16T13:12:47;7.87;;;3.70;;
48002;SDS011;33768;48.578;11.574;2023-03-16T13:16:00;6.03;;;3.80;;
48002;SDS011;33768;48.578;11.574;2023-03-16T13:19:44;4.57;;;3.63;;
48002;SDS011;33768;48.578;11.574;2023-03-16T13:22:48;5.27;;;3.30;;
48002;SDS011;33768;48.578;11.574;2023-03-16T13:26:03;5.80;;;3.57;;
48002;SDS011;33768;48.578;11.574;2023-03-16T13:29:38;8.30;;;3.30;;
48002;SDS011;33768;48.578;11.574;2023-03-16T13:32:43;4.37;;;3.27;;
48002;SDS011;33768;48.578;11.574;2023-03-16T13:35:48;4.23;;;3.23;;
48002;SDS011;33768;48.578;11.574;2023-03-16T13:39:06;5.17;;;3.13;;
48002;SDS011;33768;48.578;11.574;2023-03-16T13:42:18;4.77;;;3.37;;
48002;SDS011;33768;48.578;11.574;2023-03-16T13:45:29;4.60;;;3.00;;
48002;SDS011;33768;48.578;11.574;2023-03-16T13:48:35;3.60;;;2.50;;
48002;SDS011;33768;48.578;11.574;2023-03-16T13:51:40;4.33;;;3.23;;
48002;SDS011;33768;48.578;11.574;2023-03-16T13:54:47;5.07;;;3.40;;
48002;SDS011;33768;48.578;11.574;2023-03-16T13:57:52;5.47;;;3.50;;
48002;SDS011;33768;48.578;11.574;2023-03-16T14:00:58;10.70;;;4.20;;
48002;SDS011;33768;48.578;11.574;2023-03-16T14:04:05;3.73;;;3.10;;
48002;SDS011;33768;48.578;11.574;2023-03-16T14:07:17;3.50;;;2.90;;
48002;SDS011;33768;48.578;11.574;2023-03-16T14:10:23;2.83;;;2.57;;
48002;SDS011;33768;48.578;11.574;2023-03-16T14:13:32;3.80;;;2.97;;
48002;SDS011;33768;48.578;11.574;2023-03-16T14:16:38;4.43;;;2.90;;
48002;SDS011;33768;48.578;11.574;2023-03-16T14:22:52;4.30;;;2.70;;
48002;SDS011;33768;48.578;11.574;2023-03-16T14:25:56;6.17;;;2.80;;
48002;SDS011;33768;48.578;11.574;2023-03-16T14:32:19;4.43;;;2.63;;
48002;SDS011;33768;48.578;11.574;2023-03-16T14:35:41;3.17;;;2.20;;
48002;SDS011;33768;48.578;11.574;2023-03-16T14:38:46;5.50;;;2.80;;
48002;SDS011;33768;48.578;11.574;2023-03-16T14:41:51;3.53;;;2.33;;
48002;SDS011;33768;48.578;11.574;2023-03-16T14:44:56;3.60;;;2.60;;
48002;SDS011;33768;48.578;11.574;2023-03-16T14:48:04;3.20;;;2.73;;
48002;SDS011;33768;48.578;11.574;2023-03-16T14:51:13;4.50;;;3.20;;
48002;SDS011;33768;48.578;11.574;2023-03-16T14:54:18;4.43;;;2.50;;
48002;SDS011;33768;48.578;11.574;2023-03-16T14:57:27;3.70;;;2.87;;
48002;SDS011;33768;48.578;11.574;2023-03-16T15:00:31;4.13;;;2.80;;
48002;SDS011;33768;48.578;11.574;2023-03-16T15:03:35;5.83;;;2.90;;
48002;SDS011;33768;48.578;11.574;2023-03-16T15:06:40;2.67;;;2.47;;
48002;SDS011;33768;48.578;11.574;2023-03-16T15:09:45;5.47;;;3.10;;
48002;SDS011;33768;48.578;11.574;2023-03-16T15:12:48;5.07;;;2.80;;
48002;SDS011;33768;48.578;11.574;2023-03-16T15:15:56;6.00;;;2.93;;
48002;SDS011;33768;48.578;11.574;2023-03-16T15:19:01;5.33;;;3.10;;
48002;SDS011;33768;48.578;11.574;2023-03-16T15:22:05;3.77;;;2.73;;
48002;SDS011;33768;48.578;11.574;2023-03-16T15:25:23;4.93;;;2.77;;
48002;SDS011;33768;48.578;11.574;2023-03-16T15:28:42;4.43;;;2.57;;
48002;SDS011;33768;48.578;11.574;2023-03-16T15:31:46;4.43;;;2.60;;
48002;SDS011;33768;48.578;11.574;2023-03-16T15:34:50;4.40;;;2.83;;
48002;SDS011;33768;48.578;11.574;2023-03-16T15:37:54;3.87;;;2.50;;
48002;SDS011;33768;48.578;11.574;2023-03-16T15:40:59;2.93;;;2.40;;
48002;SDS011;33768;48.578;11.574;2023-03-16T15:44:10;4.17;;;2.40;;
48002;SDS011;33768;48.578;11.574;2023-03-16T16:01:54;4.17;;;2.73;;
48002;SDS011;33768;48.578;11.574;2023-03-16T16:04:58;3.33;;;2.80;;
48002;SDS011;33768;48.578;11.574;2023-03-16T16:08:02;4.43;;;2.90;;
48002;SDS011;33768;48.578;11.574;2023-03-16T16:11:15;3.50;;;3.10;;
48002;SDS011;33768;48.578;11.574;2023-03-16T16:14:23;5.37;;;4.00;;
48002;SDS011;33768;48.578;11.574;2023-03-16T16:17:29;5.93;;;3.23;;
48002;SDS011;33768;48.578;11.574;2023-03-16T16:20:33;4.50;;;3.50;;
48002;SDS011;33768;48.578;11.574;2023-03-16T16:23:37;4.43;;;3.50;;
48002;SDS011;33768;48.578;11.574;2023-03-16T16:26:42;4.87;;;3.37;;
48002;SDS011;33768;48.578;11.574;2023-03-16T16:29:47;4.57;;;3.50;;
48002;SDS011;33768;48.578;11.574;2023-03-16T16:32:52;4.70;;;3.77;;
48002;SDS011;33768;48.578;11.574;2023-03-16T16:35:58;5.90;;;3.80;;
48002;SDS011;33768;48.578;11.574;2023-03-16T16:39:04;6.73;;;3.73;;
48002;SDS011;33768;48.578;11.574;2023-03-16T16:42:10;4.30;;;3.63;;
48002;SDS011;33768;48.578;11.574;2023-03-16T16:45:20;3.80;;;3.40;;
48002;SDS011;33768;48.578;11.574;2023-03-16T16:48:37;5.03;;;3.60;;
48002;SDS011;33768;48.578;11.574;2023-03-16T16:51:45;5.23;;;3.47;;
48002;SDS011;33768;48.578;11.574;2023-03-16T16:54:49;5.00;;;3.53;;
48002;SDS011;33768;48.578;11.574;2023-03-16T16:57:54;5.23;;;3.47;;
48002;SDS011;33768;48.578;11.574;2023-03-16T17:00:58;5.47;;;3.47;;
48002;SDS011;33768;48.578;11.574;2023-03-16T17:04:02;4.03;;;3.40;;
48002;SDS011;33768;48.578;11.574;2023-03-16T17:07:08;5.90;;;3.53;;
48002;SDS011;33768;48.578;11.574;2023-03-16T17:10:15;5.40;;;3.53;;
48002;SDS011;33768;48.578;11.574;2023-03-16T17:13:36;3.67;;;3.30;;
48002;SDS011;33768;48.578;11.574;2023-03-16T17:16:43;4.70;;;3.70;;
48002;SDS011;33768;48.578;11.574;2023-03-16T17:19:50;7.77;;;3.63;;
48002;SDS011;33768;48.578;11.574;2023-03-16T17:22:55;4.57;;;3.37;;
48002;SDS011;33768;48.578;11.574;2023-03-16T17:26:17;3.33;;;3.03;;
48002;SDS011;33768;48.578;11.574;2023-03-16T17:29:23;4.73;;;3.60;;
48002;SDS011;33768;48.578;11.574;2023-03-16T17:32:30;5.93;;;4.00;;
48002;SDS011;33768;48.578;11.574;2023-03-16T17:35:34;6.27;;;3.50;;
48002;SDS011;33768;48.578;11.574;2023-03-16T17:38:39;4.67;;;3.47;;
48002;SDS011;33768;48.578;11.574;2023-03-16T17:41:44;3.63;;;3.10;;
48002;SDS011;33768;48.578;11.574;2023-03-16T17:44:49;3.70;;;3.30;;
48002;SDS011;33768;48.578;11.574;2023-03-16T17:47:53;5.00;;;3.30;;
48002;SDS011;33768;48.578;11.574;2023-03-16T17:50:58;4.10;;;3.17;;
48002;SDS011;33768;48.578;11.574;2023-03-16T17:54:03;4.60;;;3.17;;
48002;SDS011;33768;48.578;11.574;2023-03-16T17:57:11;5.77;;;3.60;;
48002;SDS011;33768;48.578;11.574;2023-03-16T18:00:23;4.13;;;3.57;;
48002;SDS011;33768;48.578;11.574;2023-03-16T18:03:38;5.80;;;3.90;;
48002;SDS011;33768;48.578;11.574;2023-03-16T18:06:42;4.70;;;3.73;;
48002;SDS011;33768;48.578;11.574;2023-03-16T18:09:50;5.30;;;3.80;;
48002;SDS011;33768;48.578;11.574;2023-03-16T18:12:59;4.47;;;3.70;;
48002;SDS011;33768;48.578;11.574;2023-03-16T18:16:05;4.83;;;3.40;;
48002;SDS011;33768;48.578;11.574;2023-03-16T18:19:19;5.83;;;4.07;;
48002;SDS011;33768;48.578;11.574;2023-03-16T18:26:02;5.53;;;4.47;;
48002;SDS011;33768;48.578;11.574;2023-03-16T18:29:06;6.03;;;4.20;;
48002;SDS011;33768;48.578;11.574;2023-03-16T18:32:24;5.90;;;4.13;;
48002;SDS011;33768;48.578;11.574;2023-03-16T18:35:32;7.47;;;4.43;;
48002;SDS011;33768;48.578;11.574;2023-03-16T18:38:39;6.27;;;4.40;;
48002;SDS011;33768;48.578;11.574;2023-03-16T18:41:46;6.33;;;4.50;;
48002;SDS011;33768;48.578;11.574;2023-03-16T18:44:50;6.43;;;4.73;;
48002;SDS011;33768;48.578;11.574;2023-03-16T18:47:54;5.93;;;4.33;;
48002;SDS011;33768;48.578;11.574;2023-03-16T18:50:59;6.77;;;4.47;;
48002;SDS011;33768;48.578;11.574;2023-03-16T18:54:08;5.43;;;4.30;;
48002;SDS011;33768;48.578;11.574;2023-03-16T18:57:27;7.20;;;4.83;;
48002;SDS011;33768;48.578;11.574;2023-03-16T19:00:32;6.57;;;4.50;;
48002;SDS011;33768;48.578;11.574;2023-03-16T19:03:38;7.13;;;4.40;;
48002;SDS011;33768;48.578;11.574;2023-03-16T19:06:46;6.23;;;4.37;;
48002;SDS011;33768;48.578;11.574;2023-03-16T19:09:51;6.77;;;4.73;;
48002;SDS011;33768;48.578;11.574;2023-03-16T19:12:55;8.30;;;4.80;;
48002;SDS011;33768;48.578;11.574;2023-03-16T19:16:00;6.10;;;4.80;;
48002;SDS011;33768;48.578;11.574;2023-03-16T19:19:06;9.20;;;4.37;;
48002;SDS011;33768;48.578;11.574;2023-03-16T19:22:12;6.83;;;4.33;;
48002;SDS011;33768;48.578;11.574;2023-03-16T19:25:23;6.43;;;4.50;;
48002;SDS011;33768;48.578;11.574;2023-03-16T19:28:35;6.83;;;4.97;;
48002;SDS011;33768;48.578;11.574;2023-03-16T19:31:41;6.43;;;4.60;;
48002;SDS011;33768;48.578;11.574;2023-03-16T19:34:46;6.77;;;4.90;;
48002;SDS011;33768;48.578;11.574;2023-03-16T19:37:50;6.73;;;4.60;;
48002;SDS011;33768;48.578;11.574;2023-03-16T19:40:55;6.60;;;4.80;;
48002;SDS011;33768;48.578;11.574;2023-03-16T19:44:21;9.20;;;5.47;;
48002;SDS011;33768;48.578;11.574;2023-03-16T19:47:28;5.90;;;4.53;;
48002;SDS011;33768;48.578;11.574;2023-03-16T19:50:34;5.73;;;4.40;;
48002;SDS011;33768;48.578;11.574;2023-03-16T19:53:38;8.10;;;4.80;;
48002;SDS011;33768;48.578;11.574;2023-03-16T19:56:42;6.63;;;5.23;;
48002;SDS011;33768;48.578;11.574;2023-03-16T19:59:48;5.90;;;4.47;;
48002;SDS011;33768;48.578;11.574;2023-03-16T20:02:56;9.47;;;5.27;;
48002;SDS011;33768;48.578;11.574;2023-03-16T20:06:00;6.37;;;4.97;;
48002;SDS011;33768;48.578;11.574;2023-03-16T20:09:08;7.63;;;4.70;;
48002;SDS011;33768;48.578;11.574;2023-03-16T20:15:27;5.60;;;4.57;;
48002;SDS011;33768;48.578;11.574;2023-03-16T20:18:34;6.47;;;4.53;;
48002;SDS011;33768;48.578;11.574;2023-03-16T20:21:38;7.87;;;4.40;;
48002;SDS011;33768;48.578;11.574;2023-03-16T20:24:43;7.30;;;4.80;;
48002;SDS011;33768;48.578;11.574;2023-03-16T20:27:50;6.93;;;4.83;;
48002;SDS011;33768;48.578;11.574;2023-03-16T20:30:58;7.83;;;4.40;;
48002;SDS011;33768;48.578;11.574;2023-03-16T20:34:02;8.43;;;4.80;;
48002;SDS011;33768;48.578;11.574;2023-03-16T20:37:18;6.00;;;4.67;;
48002;SDS011;33768;48.578;11.574;2023-03-16T20:40:26;6.63;;;4.80;;
48002;SDS011;33768;48.578;11.574;2023-03-16T20:43:31;6.63;;;4.70;;
48002;SDS011;33768;48.578;11.574;2023-03-16T20:46:35;5.60;;;4.40;;
48002;SDS011;33768;48.578;11.574;2023-03-16T20:49:43;6.40;;;4.90;;
48002;SDS011;33768;48.578;11.574;2023-03-16T20:52:47;5.90;;;4.40;;
48002;SDS011;33768;48.578;11.574;2023-03-16T20:55:52;5.87;;;4.70;;
48002;SDS011;33768;48.578;11.574;2023-03-16T20:58:57;6.37;;;4.77;;
48002;SDS011;33768;48.578;11.574;2023-03-16T21:02:04;6.83;;;4.27;;
48002;SDS011;33768;48.578;11.574;2023-03-16T21:05:36;8.27;;;4.73;;
48002;SDS011;33768;48.578;11.574;2023-03-16T21:08:40;7.00;;;4.70;;
48002;SDS011;33768;48.578;11.574;2023-03-16T21:11:44;5.97;;;5.17;;
48002;SDS011;33768;48.578;11.574;2023-03-16T21:14:49;6.00;;;3.93;;
48002;SDS011;33768;48.578;11.574;2023-03-16T21:18:04;5.40;;;4.07;;
48002;SDS011;33768;48.578;11.574;2023-03-16T21:21:14;5.43;;;4.10;;
48002;SDS011;33768;48.578;11.574;2023-03-16T21:24:19;6.77;;;4.40;;
48002;SDS011;33768;48.578;11.574;2023-03-16T21:27:24;5.17;;;4.23;;
48002;SDS011;33768;48.578;11.574;2023-03-16T21:30:32;7.83;;;4.67;;
48002;SDS011;33768;48.578;11.574;2023-03-16T21:33:42;5.17;;;3.67;;
48002;SDS011;33768;48.578;11.574;2023-03-16T21:36:47;5.20;;;3.97;;
48002;SDS011;33768;48.578;11.574;2023-03-16T21:39:51;4.70;;;3.60;;
48002;SDS011;33768;48.578;11.574;2023-03-16T21:42:54;6.80;;;4.10;;
48002;SDS011;33768;48.578;11.574;2023-03-16T21:45:59;5.73;;;4.23;;
48002;SDS011;33768;48.578;11.574;2023-03-16T21:49:03;5.37;;;3.80;;
48002;SDS011;33768;48.578;11.574;2023-03-16T21:52:17;4.80;;;3.90;;
48002;SDS011;33768;48.578;11.574;2023-03-16T21:55:27;4.93;;;4.00;;
48002;SDS011;33768;48.578;11.574;2023-03-16T21:58:32;5.03;;;3.73;;
48002;SDS011;33768;48.578;11.574;2023-03-16T22:01:36;9.30;;;3.77;;
48002;SDS011;33768;48.578;11.574;2023-03-16T22:04:42;6.67;;;3.97;;
48002;SDS011;33768;48.578;11.574;2023-03-16T22:07:47;4.70;;;3.60;;
48002;SDS011;33768;48.578;11.574;2023-03-16T22:10:52;6.47;;;3.53;;
48002;SDS011;33768;48.578;11.574;2023-03-16T22:13:57;7.07;;;4.00;;
48002;SDS011;33768;48.578;11.574;2023-03-16T22:17:02;5.33;;;4.00;;
48002;SDS011;33768;48.578;11.574;2023-03-16T22:20:16;5.13;;;4.00;;
48002;SDS011;33768;48.578;11.574;2023-03-16T22:23:30;4.77;;;3.60;;
48002;SDS011;33768;48.578;11.574;2023-03-16T22:26:37;5.70;;;3.63;;
48002;SDS011;33768;48.578;11.574;2023-03-16T22:29:42;5.03;;;3.70;;
48002;SDS011;33768;48.578;11.574;2023-03-16T22:32:51;4.97;;;3.83;;
48002;SDS011;33768;48.578;11.574;2023-03-16T22:36:00;4.13;;;3.53;;
48002;SDS011;33768;48.578;11.574;2023-03-16T22:39:06;5.87;;;3.70;;
48002;SDS011;33768;48.578;11.574;2023-03-16T22:45:22;5.53;;;3.47;;
48002;SDS011;33768;48.578;11.574;2023-03-16T22:48:29;5.33;;;3.13;;
48002;SDS011;33768;48.578;11.574;2023-03-16T22:51:34;4.33;;;3.43;;
48002;SDS011;33768;48.578;11.574;2023-03-16T22:54:40;5.00;;;3.67;;
48002;SDS011;33768;48.578;11.574;2023-03-16T22:57:44;4.97;;;4.00;;
48002;SDS011;33768;48.578;11.574;2023-03-16T23:00:50;4.63;;;3.60;;
48002;SDS011;33768;48.578;11.574;2023-03-16T23:03:54;7.53;;;3.43;;
48002;SDS011;33768;48.578;11.574;2023-03-16T23:06:58;4.30;;;3.10;;
48002;SDS011;33768;48.578;11.574;2023-03-16T23:10:02;4.67;;;3.47;;
48002;SDS011;33768;48.578;11.574;2023-03-16T23:13:19;4.33;;;3.30;;
48002;SDS011;33768;48.578;11.574;2023-03-16T23:19:32;5.73;;;3.53;;
48002;SDS011;33768;48.578;11.574;2023-03-16T23:22:37;5.23;;;3.60;;
48002;SDS011;33768;48.578;11.574;2023-03-16T23:25:44;5.03;;;3.67;;
48002;SDS011;33768;48.578;11.574;2023-03-16T23:28:50;5.40;;;3.60;;
48002;SDS011;33768;48.578;11.574;2023-03-16T23:31:55;5.80;;;3.50;;
48002;SDS011;33768;48.578;11.574;2023-03-16T23:34:59;6.57;;;3.73;;
48002;SDS011;33768;48.578;11.574;2023-03-16T23:38:03;5.40;;;3.67;;
48002;SDS011;33768;48.578;11.574;2023-03-16T23:41:08;5.00;;;3.33;;
48002;SDS011;33768;48.578;11.574;2023-03-16T23:44:19;7.13;;;3.00;;
48002;SDS011;33768;48.578;11.574;2023-03-16T23:47:25;5.90;;;3.20;;
48002;SDS011;33768;48.578;11.574;2023-03-16T23:50:30;3.43;;;3.00;;
48002;SDS011;33768;48.578;11.574;2023-03-16T23:53:38;5.23;;;3.33;;
48002;SDS011;33768;48.578;11.574;2023-03-16T23:56:43;4.37;;;3.07;;
48002;SDS011;33768;48.578;11.574;2023-03-16T23:59:47;5.63;;;3.20;;
